Fort Ross, California
Current Conditions -  °F | °C
As of 4:53 AM on Thursday 30 Oct 2014 (Local Time) from KSTS Reporting Station
Clear Clear  
Wind Chill: 54°   Ceiling: Unl
Heat Index: 54°   Visibility: 10mi
Dew Point: 53°   Wind: 5mph
Humidity: 97%   Direction: 330°NNW
Pressure: 29.92"   Gusts: NA
Location:  38.4962°N, 123.173°W
Report Text: KSTS 301153Z AUTO 33004KT 10SM CLR 12/12 A2992 RMK AO2 SLP125 7//// T01220117 10156 20111 57010
Loading
Personal Weather Stations






























Interactive Weather Map New forecast layout! Learn more

10-Day Weather Forecast

Advertisements
Track Severe Weather on mobile